sensor_id;sensor_type;location;lat;lon;timestamp;pressure;altitude;pressure_sealevel;temperature;humidity
21980;BME280;11154;48.558;9.234;2023-03-16T00:01:56;97876.31;;;7.40;67.56
21980;BME280;11154;48.558;9.234;2023-03-16T00:03:58;97878.13;;;7.39;67.59
21980;BME280;11154;48.558;9.234;2023-03-16T00:05:59;97878.94;;;7.40;67.54
21980;BME280;11154;48.558;9.234;2023-03-16T00:08:01;97877.97;;;7.41;67.74
21980;BME280;11154;48.558;9.234;2023-03-16T00:10:05;97882.56;;;7.39;66.35
21980;BME280;11154;48.558;9.234;2023-03-16T00:12:11;97878.94;;;7.40;67.68
21980;BME280;11154;48.558;9.234;2023-03-16T00:14:15;97879.09;;;7.38;67.41
21980;BME280;11154;48.558;9.234;2023-03-16T00:16:16;97880.78;;;7.39;66.93
21980;BME280;11154;48.558;9.234;2023-03-16T00:18:18;97880.63;;;7.41;67.09
21980;BME280;11154;48.558;9.234;2023-03-16T00:20:20;97883.41;;;7.39;66.33
21980;BME280;11154;48.558;9.234;2023-03-16T00:22:23;97884.25;;;7.40;66.44
21980;BME280;11154;48.558;9.234;2023-03-16T00:24:25;97875.06;;;7.44;66.78
21980;BME280;11154;48.558;9.234;2023-03-16T00:26:28;97884.25;;;7.40;66.00
21980;BME280;11154;48.558;9.234;2023-03-16T00:28:32;97885.50;;;7.36;66.96
21980;BME280;11154;48.558;9.234;2023-03-16T00:30:35;97875.88;;;7.35;66.46
21980;BME280;11154;48.558;9.234;2023-03-16T00:32:37;97875.44;;;7.30;66.95
21980;BME280;11154;48.558;9.234;2023-03-16T00:34:38;97877.81;;;7.33;68.18
21980;BME280;11154;48.558;9.234;2023-03-16T00:36:40;97884.53;;;7.37;67.12
21980;BME280;11154;48.558;9.234;2023-03-16T00:38:42;97886.16;;;7.38;65.67
21980;BME280;11154;48.558;9.234;2023-03-16T00:40:45;97893.13;;;7.39;65.16
21980;BME280;11154;48.558;9.234;2023-03-16T00:42:48;97900.25;;;7.38;64.87
21980;BME280;11154;48.558;9.234;2023-03-16T00:44:50;97892.72;;;7.34;65.40
21980;BME280;11154;48.558;9.234;2023-03-16T00:46:56;97905.34;;;7.30;65.34
21980;BME280;11154;48.558;9.234;2023-03-16T00:48:57;97906.22;;;7.31;66.45
21980;BME280;11154;48.558;9.234;2023-03-16T00:51:00;97896.72;;;7.28;66.75
21980;BME280;11154;48.558;9.234;2023-03-16T00:53:02;97898.97;;;7.33;65.88
21980;BME280;11154;48.558;9.234;2023-03-16T00:55:04;97896.72;;;7.28;66.32
21980;BME280;11154;48.558;9.234;2023-03-16T00:57:06;97904.06;;;7.25;67.12
21980;BME280;11154;48.558;9.234;2023-03-16T00:59:09;97894.47;;;7.24;68.01
21980;BME280;11154;48.558;9.234;2023-03-16T01:01:14;97895.25;;;7.15;66.80
21980;BME280;11154;48.558;9.234;2023-03-16T01:03:16;97894.44;;;7.15;68.24
21980;BME280;11154;48.558;9.234;2023-03-16T01:05:18;97887.13;;;7.07;67.30
21980;BME280;11154;48.558;9.234;2023-03-16T01:07:20;97888.75;;;6.99;67.23
21980;BME280;11154;48.558;9.234;2023-03-16T01:09:22;97893.47;;;6.95;68.66
21980;BME280;11154;48.558;9.234;2023-03-16T01:11:23;97893.75;;;6.92;67.90
21980;BME280;11154;48.558;9.234;2023-03-16T01:13:25;97894.00;;;6.89;67.54
21980;BME280;11154;48.558;9.234;2023-03-16T01:15:28;97894.28;;;6.86;67.84
21980;BME280;11154;48.558;9.234;2023-03-16T01:17:30;97890.34;;;6.81;67.32
21980;BME280;11154;48.558;9.234;2023-03-16T01:19:35;97886.28;;;6.77;67.71
21980;BME280;11154;48.558;9.234;2023-03-16T01:21:37;97893.34;;;6.76;68.03
21980;BME280;11154;48.558;9.234;2023-03-16T01:23:40;97891.16;;;6.81;69.47
21980;BME280;11154;48.558;9.234;2023-03-16T01:25:43;97882.53;;;6.79;69.07
21980;BME280;11154;48.558;9.234;2023-03-16T01:27:52;97882.53;;;6.79;68.81
21980;BME280;11154;48.558;9.234;2023-03-16T01:29:53;97885.44;;;6.76;68.44
21980;BME280;11154;48.558;9.234;2023-03-16T01:31:57;97877.06;;;6.71;68.31
21980;BME280;11154;48.558;9.234;2023-03-16T01:33:59;97875.06;;;6.64;68.06
21980;BME280;11154;48.558;9.234;2023-03-16T01:36:04;97890.19;;;6.62;68.07
21980;BME280;11154;48.558;9.234;2023-03-16T01:38:06;97881.69;;;6.58;68.30
21980;BME280;11154;48.558;9.234;2023-03-16T01:40:09;97880.00;;;6.57;68.80
21980;BME280;11154;48.558;9.234;2023-03-16T01:42:12;97877.66;;;6.54;68.81
21980;BME280;11154;48.558;9.234;2023-03-16T01:44:16;97886.84;;;6.60;69.80
21980;BME280;11154;48.558;9.234;2023-03-16T01:46:22;97881.19;;;6.64;70.69
21980;BME280;11154;48.558;9.234;2023-03-16T01:48:26;97878.53;;;6.64;70.97
21980;BME280;11154;48.558;9.234;2023-03-16T01:50:28;97875.66;;;6.67;70.97
21980;BME280;11154;48.558;9.234;2023-03-16T01:52:31;97869.38;;;6.68;70.04
21980;BME280;11154;48.558;9.234;2023-03-16T01:54:35;97874.34;;;6.62;69.25
21980;BME280;11154;48.558;9.234;2023-03-16T01:56:40;97867.09;;;6.54;67.74
21980;BME280;11154;48.558;9.234;2023-03-16T01:58:44;97866.34;;;6.52;68.42
21980;BME280;11154;48.558;9.234;2023-03-16T02:00:47;97858.81;;;6.48;68.72
21980;BME280;11154;48.558;9.234;2023-03-16T02:02:53;97828.56;;;4.60;75.26
21980;BME280;11154;48.558;9.234;2023-03-16T02:05:00;97841.66;;;3.69;82.27
21980;BME280;11154;48.558;9.234;2023-03-16T02:07:04;97837.63;;;3.30;85.97
21980;BME280;11154;48.558;9.234;2023-03-16T02:09:07;97838.41;;;3.07;88.43
21980;BME280;11154;48.558;9.234;2023-03-16T02:11:09;97835.28;;;3.02;91.61
21980;BME280;11154;48.558;9.234;2023-03-16T02:13:11;97827.72;;;2.97;94.25
21980;BME280;11154;48.558;9.234;2023-03-16T02:15:13;97820.06;;;2.82;93.65
21980;BME280;11154;48.558;9.234;2023-03-16T02:17:17;97826.72;;;2.63;92.99
21980;BME280;11154;48.558;9.234;2023-03-16T02:19:34;97825.97;;;2.48;93.60
21980;BME280;11154;48.558;9.234;2023-03-16T02:21:46;97817.06;;;2.38;94.39
21980;BME280;11154;48.558;9.234;2023-03-16T02:23:53;97821.16;;;2.30;94.74
21980;BME280;11154;48.558;9.234;2023-03-16T02:26:01;97804.25;;;2.34;96.13
21980;BME280;11154;48.558;9.234;2023-03-16T02:28:09;97799.72;;;2.48;97.91
21980;BME280;11154;48.558;9.234;2023-03-16T02:30:18;97807.59;;;2.48;97.48
21980;BME280;11154;48.558;9.234;2023-03-16T02:32:22;97797.75;;;2.39;96.69
21980;BME280;11154;48.558;9.234;2023-03-16T02:34:25;97802.91;;;2.28;96.42
21980;BME280;11154;48.558;9.234;2023-03-16T02:36:28;97798.06;;;2.22;96.23
21980;BME280;11154;48.558;9.234;2023-03-16T02:38:30;97796.25;;;2.35;97.91
21980;BME280;11154;48.558;9.234;2023-03-16T02:40:33;97791.88;;;2.36;97.67
21980;BME280;11154;48.558;9.234;2023-03-16T02:42:35;97786.59;;;2.23;96.82
21980;BME280;11154;48.558;9.234;2023-03-16T02:44:37;97797.44;;;2.19;97.41
21980;BME280;11154;48.558;9.234;2023-03-16T02:46:42;97797.94;;;2.12;96.99
21980;BME280;11154;48.558;9.234;2023-03-16T02:48:46;97801.72;;;2.08;96.75
21980;BME280;11154;48.558;9.234;2023-03-16T02:50:52;97805.16;;;2.08;97.05
21980;BME280;11154;48.558;9.234;2023-03-16T02:52:55;97809.59;;;2.08;97.51
21980;BME280;11154;48.558;9.234;2023-03-16T02:54:56;97806.75;;;2.11;97.43
21980;BME280;11154;48.558;9.234;2023-03-16T02:56:58;97808.31;;;2.13;97.82
21980;BME280;11154;48.558;9.234;2023-03-16T02:59:00;97803.50;;;2.19;98.19
21980;BME280;11154;48.558;9.234;2023-03-16T03:01:01;97802.16;;;2.26;98.72
21980;BME280;11154;48.558;9.234;2023-03-16T03:03:05;97799.84;;;2.34;99.43
21980;BME280;11154;48.558;9.234;2023-03-16T03:05:07;97795.94;;;2.40;99.41
21980;BME280;11154;48.558;9.234;2023-03-16T03:07:09;97795.88;;;2.41;100.00
21980;BME280;11154;48.558;9.234;2023-03-16T03:09:11;97792.06;;;2.45;99.64
21980;BME280;11154;48.558;9.234;2023-03-16T03:11:12;97788.31;;;2.37;98.14
21980;BME280;11154;48.558;9.234;2023-03-16T03:13:14;97786.31;;;2.40;99.36
21980;BME280;11154;48.558;9.234;2023-03-16T03:15:16;97789.22;;;2.48;99.53
21980;BME280;11154;48.558;9.234;2023-03-16T03:17:18;97785.03;;;2.46;99.11
21980;BME280;11154;48.558;9.234;2023-03-16T03:19:21;97782.13;;;2.38;98.06
21980;BME280;11154;48.558;9.234;2023-03-16T03:21:23;97783.69;;;2.40;98.05
21980;BME280;11154;48.558;9.234;2023-03-16T03:23:25;97780.75;;;2.32;97.69
21980;BME280;11154;48.558;9.234;2023-03-16T03:25:27;97782.44;;;2.33;98.37
21980;BME280;11154;48.558;9.234;2023-03-16T03:27:28;97775.28;;;2.35;98.12
21980;BME280;11154;48.558;9.234;2023-03-16T03:29:30;97769.94;;;2.24;97.25
21980;BME280;11154;48.558;9.234;2023-03-16T03:31:34;97782.72;;;2.16;96.57
21980;BME280;11154;48.558;9.234;2023-03-16T03:33:35;97777.81;;;2.12;97.18
21980;BME280;11154;48.558;9.234;2023-03-16T03:35:38;97770.88;;;2.23;98.41
21980;BME280;11154;48.558;9.234;2023-03-16T03:37:41;97782.09;;;2.13;97.01
21980;BME280;11154;48.558;9.234;2023-03-16T03:39:43;97786.41;;;2.14;96.81
21980;BME280;11154;48.558;9.234;2023-03-16T03:41:45;97778.22;;;2.06;96.89
21980;BME280;11154;48.558;9.234;2023-03-16T03:43:47;97774.84;;;1.92;95.92
21980;BME280;11154;48.558;9.234;2023-03-16T03:45:49;97779.34;;;2.02;97.18
21980;BME280;11154;48.558;9.234;2023-03-16T03:47:50;97774.22;;;2.13;98.15
21980;BME280;11154;48.558;9.234;2023-03-16T03:49:52;97761.09;;;2.13;97.48
21980;BME280;11154;48.558;9.234;2023-03-16T03:51:55;97751.16;;;2.06;96.19
21980;BME280;11154;48.558;9.234;2023-03-16T03:53:58;97763.84;;;2.12;96.85
21980;BME280;11154;48.558;9.234;2023-03-16T03:56:00;97766.78;;;1.95;95.45
21980;BME280;11154;48.558;9.234;2023-03-16T03:58:01;97761.19;;;1.87;96.36
21980;BME280;11154;48.558;9.234;2023-03-16T04:00:04;97792.47;;;2.02;98.03
21980;BME280;11154;48.558;9.234;2023-03-16T04:02:09;97797.59;;;3.26;94.84
21980;BME280;11154;48.558;9.234;2023-03-16T04:04:11;97792.72;;;3.79;90.22
21980;BME280;11154;48.558;9.234;2023-03-16T04:06:12;97796.69;;;4.19;87.12
21980;BME280;11154;48.558;9.234;2023-03-16T04:08:15;97796.03;;;4.50;83.46
21980;BME280;11154;48.558;9.234;2023-03-16T04:10:17;97802.50;;;4.79;81.53
21980;BME280;11154;48.558;9.234;2023-03-16T04:12:19;97802.13;;;4.94;79.10
21980;BME280;11154;48.558;9.234;2023-03-16T04:14:20;97800.81;;;5.10;77.18
21980;BME280;11154;48.558;9.234;2023-03-16T04:16:22;97799.00;;;5.22;75.72
21980;BME280;11154;48.558;9.234;2023-03-16T04:18:26;97796.00;;;5.37;74.93
21980;BME280;11154;48.558;9.234;2023-03-16T04:20:27;97791.41;;;5.50;74.19
21980;BME280;11154;48.558;9.234;2023-03-16T04:22:29;97793.53;;;5.56;72.22
21980;BME280;11154;48.558;9.234;2023-03-16T04:24:32;97788.13;;;5.58;70.67
21980;BME280;11154;48.558;9.234;2023-03-16T04:26:35;97794.59;;;5.65;71.86
21980;BME280;11154;48.558;9.234;2023-03-16T04:28:36;97782.34;;;5.74;71.85
21980;BME280;11154;48.558;9.234;2023-03-16T04:30:38;97782.25;;;5.76;70.11
21980;BME280;11154;48.558;9.234;2023-03-16T04:32:42;97777.41;;;5.81;69.70
21980;BME280;11154;48.558;9.234;2023-03-16T04:34:43;97779.25;;;5.80;70.53
21980;BME280;11154;48.558;9.234;2023-03-16T04:36:46;97776.19;;;5.85;70.84
21980;BME280;11154;48.558;9.234;2023-03-16T04:38:48;97769.13;;;5.85;70.11
21980;BME280;11154;48.558;9.234;2023-03-16T04:40:51;97767.09;;;5.89;70.56
21980;BME280;11154;48.558;9.234;2023-03-16T04:42:52;97772.34;;;5.89;70.21
21980;BME280;11154;48.558;9.234;2023-03-16T04:44:54;97772.34;;;5.89;69.50
21980;BME280;11154;48.558;9.234;2023-03-16T04:46:56;97768.88;;;5.88;69.93
21980;BME280;11154;48.558;9.234;2023-03-16T04:48:59;97771.41;;;5.90;69.83
21980;BME280;11154;48.558;9.234;2023-03-16T04:51:01;97770.69;;;5.88;69.55
21980;BME280;11154;48.558;9.234;2023-03-16T04:53:03;97772.34;;;5.89;69.44
21980;BME280;11154;48.558;9.234;2023-03-16T04:55:05;97781.00;;;5.91;69.45
21980;BME280;11154;48.558;9.234;2023-03-16T04:57:08;97775.97;;;5.88;68.57
21980;BME280;11154;48.558;9.234;2023-03-16T04:59:10;97773.31;;;5.88;69.43
21980;BME280;11154;48.558;9.234;2023-03-16T05:01:11;97770.09;;;5.84;69.30
21980;BME280;11154;48.558;9.234;2023-03-16T05:03:13;97770.22;;;5.83;68.17
21980;BME280;11154;48.558;9.234;2023-03-16T05:05:15;97769.06;;;5.76;66.32
21980;BME280;11154;48.558;9.234;2023-03-16T05:07:17;97776.97;;;5.76;68.01
21980;BME280;11154;48.558;9.234;2023-03-16T05:09:19;97771.06;;;5.72;69.13
21980;BME280;11154;48.558;9.234;2023-03-16T05:11:21;97772.88;;;5.72;69.24
21980;BME280;11154;48.558;9.234;2023-03-16T05:13:24;97776.47;;;5.71;68.76
21980;BME280;11154;48.558;9.234;2023-03-16T05:15:26;97769.53;;;5.70;69.70
21980;BME280;11154;48.558;9.234;2023-03-16T05:17:27;97773.25;;;5.68;68.56
21980;BME280;11154;48.558;9.234;2023-03-16T05:19:29;97765.44;;;5.66;69.71
21980;BME280;11154;48.558;9.234;2023-03-16T05:21:31;97765.22;;;5.69;69.86
21980;BME280;11154;48.558;9.234;2023-03-16T05:23:34;97767.25;;;5.66;69.92
21980;BME280;11154;48.558;9.234;2023-03-16T05:25:35;97765.00;;;5.61;67.88
21980;BME280;11154;48.558;9.234;2023-03-16T05:27:38;97775.09;;;5.56;66.94
21980;BME280;11154;48.558;9.234;2023-03-16T05:29:42;97766.94;;;5.48;66.45
21980;BME280;11154;48.558;9.234;2023-03-16T05:31:45;97770.94;;;5.43;66.95
21980;BME280;11154;48.558;9.234;2023-03-16T05:33:47;97767.72;;;5.39;66.87
21980;BME280;11154;48.558;9.234;2023-03-16T05:35:49;97773.19;;;5.47;68.74
21980;BME280;11154;48.558;9.234;2023-03-16T05:37:51;97767.72;;;5.39;66.40
21980;BME280;11154;48.558;9.234;2023-03-16T05:39:54;97763.25;;;5.40;66.90
21980;BME280;11154;48.558;9.234;2023-03-16T05:41:56;97763.25;;;5.40;68.16
21980;BME280;11154;48.558;9.234;2023-03-16T05:43:58;97766.44;;;5.54;72.54
21980;BME280;11154;48.558;9.234;2023-03-16T05:46:01;97768.13;;;5.55;69.49
21980;BME280;11154;48.558;9.234;2023-03-16T05:48:03;97767.91;;;5.47;69.08
21980;BME280;11154;48.558;9.234;2023-03-16T05:50:07;97760.00;;;5.47;69.42
21980;BME280;11154;48.558;9.234;2023-03-16T05:52:10;97772.50;;;5.45;69.28
21980;BME280;11154;48.558;9.234;2023-03-16T05:54:13;97771.91;;;5.42;68.58
21980;BME280;11154;48.558;9.234;2023-03-16T05:56:14;97777.75;;;5.45;69.75
21980;BME280;11154;48.558;9.234;2023-03-16T05:58:16;97774.28;;;5.45;68.05
21980;BME280;11154;48.558;9.234;2023-03-16T06:00:18;97766.25;;;5.46;68.39
21980;BME280;11154;48.558;9.234;2023-03-16T06:02:22;97763.63;;;5.46;68.62
21980;BME280;11154;48.558;9.234;2023-03-16T06:04:23;97762.91;;;5.44;68.75
21980;BME280;11154;48.558;9.234;2023-03-16T06:06:25;97761.69;;;5.48;69.52
21980;BME280;11154;48.558;9.234;2023-03-16T06:08:27;97755.72;;;5.46;68.06
21980;BME280;11154;48.558;9.234;2023-03-16T06:10:28;97760.84;;;5.48;68.16
21980;BME280;11154;48.558;9.234;2023-03-16T06:12:30;97766.00;;;5.49;68.84
21980;BME280;11154;48.558;9.234;2023-03-16T06:14:33;97758.94;;;5.50;69.01
21980;BME280;11154;48.558;9.234;2023-03-16T06:16:35;97758.66;;;5.53;68.94
21980;BME280;11154;48.558;9.234;2023-03-16T06:18:38;97759.25;;;5.56;68.41
21980;BME280;11154;48.558;9.234;2023-03-16T06:20:40;97767.63;;;5.61;69.80
21980;BME280;11154;48.558;9.234;2023-03-16T06:22:42;97765.72;;;5.63;68.74
21980;BME280;11154;48.558;9.234;2023-03-16T06:24:44;97763.91;;;5.64;68.71
21980;BME280;11154;48.558;9.234;2023-03-16T06:26:46;97760.44;;;5.63;68.86
21980;BME280;11154;48.558;9.234;2023-03-16T06:28:47;97757.53;;;5.66;69.67
21980;BME280;11154;48.558;9.234;2023-03-16T06:30:52;97752.75;;;5.71;69.69
21980;BME280;11154;48.558;9.234;2023-03-16T06:32:54;97764.69;;;5.75;70.15
21980;BME280;11154;48.558;9.234;2023-03-16T06:34:57;97761.47;;;5.82;71.43
21980;BME280;11154;48.558;9.234;2023-03-16T06:37:01;97761.81;;;5.89;71.91
21980;BME280;11154;48.558;9.234;2023-03-16T06:39:03;97765.03;;;5.92;71.16
21980;BME280;11154;48.558;9.234;2023-03-16T06:41:05;97767.09;;;5.89;70.83
21980;BME280;11154;48.558;9.234;2023-03-16T06:43:06;97773.31;;;5.88;70.42
21980;BME280;11154;48.558;9.234;2023-03-16T06:45:10;97764.31;;;5.90;70.73
21980;BME280;11154;48.558;9.234;2023-03-16T06:47:12;97760.72;;;5.91;70.54
21980;BME280;11154;48.558;9.234;2023-03-16T06:49:14;97764.91;;;5.94;69.94
21980;BME280;11154;48.558;9.234;2023-03-16T06:51:17;97761.03;;;5.98;70.30
21980;BME280;11154;48.558;9.234;2023-03-16T06:53:18;97767.75;;;6.02;70.03
21980;BME280;11154;48.558;9.234;2023-03-16T06:55:21;97766.28;;;6.09;70.70
21980;BME280;11154;48.558;9.234;2023-03-16T06:57:23;97760.66;;;6.23;68.84
21980;BME280;11154;48.558;9.234;2023-03-16T06:59:25;97764.44;;;6.09;69.37
21980;BME280;11154;48.558;9.234;2023-03-16T07:01:26;97768.69;;;6.01;70.31
21980;BME280;11154;48.558;9.234;2023-03-16T07:03:29;97764.06;;;5.93;70.52
21980;BME280;11154;48.558;9.234;2023-03-16T07:05:30;97771.00;;;5.94;71.23
21980;BME280;11154;48.558;9.234;2023-03-16T07:07:33;97768.50;;;5.93;71.37
21980;BME280;11154;48.558;9.234;2023-03-16T07:09:35;97763.22;;;5.93;72.51
21980;BME280;11154;48.558;9.234;2023-03-16T07:11:37;97775.22;;;5.97;72.37
21980;BME280;11154;48.558;9.234;2023-03-16T07:13:38;97772.28;;;6.00;72.38
21980;BME280;11154;48.558;9.234;2023-03-16T07:15:40;97779.25;;;6.01;73.16
21980;BME280;11154;48.558;9.234;2023-03-16T07:17:41;97781.66;;;6.04;73.99
21980;BME280;11154;48.558;9.234;2023-03-16T07:19:43;97781.97;;;6.10;74.40
21980;BME280;11154;48.558;9.234;2023-03-16T07:21:45;97789.06;;;6.10;74.18
21980;BME280;11154;48.558;9.234;2023-03-16T07:23:48;97787.00;;;6.13;74.39
21980;BME280;11154;48.558;9.234;2023-03-16T07:25:51;97789.00;;;6.21;74.42
21980;BME280;11154;48.558;9.234;2023-03-16T07:27:52;97783.19;;;6.27;74.33
21980;BME280;11154;48.558;9.234;2023-03-16T07:29:54;97778.50;;;6.30;74.65
21980;BME280;11154;48.558;9.234;2023-03-16T07:31:56;97784.94;;;6.37;74.48
21980;BME280;11154;48.558;9.234;2023-03-16T07:33:58;97780.09;;;6.42;74.21
21980;BME280;11154;48.558;9.234;2023-03-16T07:35:59;97775.00;;;6.50;75.74
21980;BME280;11154;48.558;9.234;2023-03-16T07:38:03;97785.19;;;6.54;75.40
21980;BME280;11154;48.558;9.234;2023-03-16T07:40:08;97779.09;;;6.63;75.91
21980;BME280;11154;48.558;9.234;2023-03-16T07:42:10;97779.53;;;6.68;75.80
21980;BME280;11154;48.558;9.234;2023-03-16T07:44:11;97783.34;;;6.75;76.64
21980;BME280;11154;48.558;9.234;2023-03-16T07:46:13;97781.03;;;6.82;76.46
21980;BME280;11154;48.558;9.234;2023-03-16T07:48:15;97781.16;;;6.90;76.84
21980;BME280;11154;48.558;9.234;2023-03-16T07:50:17;97782.59;;;6.94;76.88
21980;BME280;11154;48.558;9.234;2023-03-16T07:52:19;97783.03;;;6.99;76.66
21980;BME280;11154;48.558;9.234;2023-03-16T07:54:21;97785.84;;;7.07;77.42
21980;BME280;11154;48.558;9.234;2023-03-16T07:56:24;97780.16;;;7.11;77.79
21980;BME280;11154;48.558;9.234;2023-03-16T07:58:26;97778.22;;;7.13;76.67
21980;BME280;11154;48.558;9.234;2023-03-16T08:00:28;97778.13;;;7.24;78.25
21980;BME280;11154;48.558;9.234;2023-03-16T08:02:30;97775.50;;;7.33;79.19
21980;BME280;11154;48.558;9.234;2023-03-16T08:04:31;97783.47;;;7.43;79.20
21980;BME280;11154;48.558;9.234;2023-03-16T08:06:33;97774.28;;;7.47;78.70
21980;BME280;11154;48.558;9.234;2023-03-16T08:08:35;97773.59;;;7.54;78.75
21980;BME280;11154;48.558;9.234;2023-03-16T08:10:36;97774.28;;;7.56;77.86
21980;BME280;11154;48.558;9.234;2023-03-16T08:12:39;97779.91;;;7.72;80.28
21980;BME280;11154;48.558;9.234;2023-03-16T08:14:42;97777.09;;;7.74;78.49
21980;BME280;11154;48.558;9.234;2023-03-16T08:16:44;97780.59;;;7.84;79.58
21980;BME280;11154;48.558;9.234;2023-03-16T08:18:46;97775.72;;;7.88;79.80
21980;BME280;11154;48.558;9.234;2023-03-16T08:20:48;97778.78;;;7.93;79.66
21980;BME280;11154;48.558;9.234;2023-03-16T08:22:50;97774.88;;;7.97;78.72
21980;BME280;11154;48.558;9.234;2023-03-16T08:24:51;97776.72;;;8.06;80.31
21980;BME280;11154;48.558;9.234;2023-03-16T08:26:53;97789.66;;;8.09;78.38
21980;BME280;11154;48.558;9.234;2023-03-16T08:28:56;97779.06;;;8.09;77.18
21980;BME280;11154;48.558;9.234;2023-03-16T08:31:06;97784.22;;;8.11;77.24
21980;BME280;11154;48.558;9.234;2023-03-16T08:33:08;97777.41;;;8.18;78.12
21980;BME280;11154;48.558;9.234;2023-03-16T08:35:11;97785.34;;;8.27;78.87
21980;BME280;11154;48.558;9.234;2023-03-16T08:37:13;97774.34;;;8.32;78.18
21980;BME280;11154;48.558;9.234;2023-03-16T08:39:16;97773.63;;;8.39;76.98
21980;BME280;11154;48.558;9.234;2023-03-16T08:41:17;97768.59;;;8.46;76.34
21980;BME280;11154;48.558;9.234;2023-03-16T08:43:20;97764.13;;;8.46;74.92
21980;BME280;11154;48.558;9.234;2023-03-16T08:45:23;97760.22;;;8.50;74.55
21980;BME280;11154;48.558;9.234;2023-03-16T08:47:25;97763.41;;;8.63;75.85
21980;BME280;11154;48.558;9.234;2023-03-16T08:49:26;97761.97;;;8.68;76.29
21980;BME280;11154;48.558;9.234;2023-03-16T08:51:28;97752.75;;;8.82;76.02
21980;BME280;11154;48.558;9.234;2023-03-16T08:53:30;97755.78;;;8.87;74.11
21980;BME280;11154;48.558;9.234;2023-03-16T08:55:32;97751.72;;;8.92;72.51
21980;BME280;11154;48.558;9.234;2023-03-16T08:57:34;97754.03;;;9.05;75.36
21980;BME280;11154;48.558;9.234;2023-03-16T08:59:36;97741.72;;;9.13;75.63
21980;BME280;11154;48.558;9.234;2023-03-16T09:01:39;97741.97;;;9.20;74.61
21980;BME280;11154;48.558;9.234;2023-03-16T09:03:41;97737.88;;;9.25;73.95
21980;BME280;11154;48.558;9.234;2023-03-16T09:05:45;97740.00;;;9.22;68.57
21980;BME280;11154;48.558;9.234;2023-03-16T09:07:47;97729.09;;;9.25;67.08
21980;BME280;11154;48.558;9.234;2023-03-16T09:09:49;97728.50;;;9.31;68.99
21980;BME280;11154;48.558;9.234;2023-03-16T09:11:51;97727.00;;;9.45;70.63
21980;BME280;11154;48.558;9.234;2023-03-16T09:13:53;97732.88;;;9.49;68.54
21980;BME280;11154;48.558;9.234;2023-03-16T09:15:55;97731.94;;;9.58;68.97
21980;BME280;11154;48.558;9.234;2023-03-16T09:17:58;97735.00;;;9.63;67.98
21980;BME280;11154;48.558;9.234;2023-03-16T09:20:03;97733.00;;;9.65;67.81
21980;BME280;11154;48.558;9.234;2023-03-16T09:22:08;97727.94;;;9.71;66.06
21980;BME280;11154;48.558;9.234;2023-03-16T09:24:11;97737.66;;;9.80;65.93
21980;BME280;11154;48.558;9.234;2023-03-16T09:26:13;97730.84;;;9.95;67.52
21980;BME280;11154;48.558;9.234;2023-03-16T09:28:15;97718.94;;;9.99;66.09
21980;BME280;11154;48.558;9.234;2023-03-16T09:30:17;97712.34;;;10.03;66.64
21980;BME280;11154;48.558;9.234;2023-03-16T09:32:20;97705.03;;;10.05;67.00
21980;BME280;11154;48.558;9.234;2023-03-16T09:34:23;97702.09;;;10.08;67.09
21980;BME280;11154;48.558;9.234;2023-03-16T09:36:25;97710.59;;;10.11;66.72
21980;BME280;11154;48.558;9.234;2023-03-16T09:38:28;97696.69;;;10.17;67.76
21980;BME280;11154;48.558;9.234;2023-03-16T09:40:30;97694.09;;;10.25;67.73
21980;BME280;11154;48.558;9.234;2023-03-16T09:42:35;97688.28;;;10.30;67.63
21980;BME280;11154;48.558;9.234;2023-03-16T09:44:42;97695.66;;;10.36;65.76
21980;BME280;11154;48.558;9.234;2023-03-16T09:46:49;97691.69;;;10.40;65.77
21980;BME280;11154;48.558;9.234;2023-03-16T09:48:52;97696.91;;;10.49;65.77
21980;BME280;11154;48.558;9.234;2023-03-16T09:50:57;97693.44;;;10.57;66.29
21980;BME280;11154;48.558;9.234;2023-03-16T09:53:07;97693.22;;;10.68;65.78
21980;BME280;11154;48.558;9.234;2023-03-16T09:55:21;97684.94;;;10.78;65.72
21980;BME280;11154;48.558;9.234;2023-03-16T09:57:28;97691.31;;;10.85;66.26
21980;BME280;11154;48.558;9.234;2023-03-16T09:59:30;97679.00;;;10.84;64.08
21980;BME280;11154;48.558;9.234;2023-03-16T10:01:37;97668.53;;;10.91;64.35
21980;BME280;11154;48.558;9.234;2023-03-16T10:04:13;97672.22;;;10.98;63.99
21980;BME280;11154;48.558;9.234;2023-03-16T10:06:20;97675.41;;;11.01;63.83
21980;BME280;11154;48.558;9.234;2023-03-16T10:08:22;97656.00;;;11.09;64.18
21980;BME280;11154;48.558;9.234;2023-03-16T10:10:37;97661.19;;;11.18;63.43
21980;BME280;11154;48.558;9.234;2023-03-16T10:12:46;97660.00;;;11.29;63.37
21980;BME280;11154;48.558;9.234;2023-03-16T10:14:54;97660.69;;;11.31;62.90
21980;BME280;11154;48.558;9.234;2023-03-16T10:17:00;97665.41;;;11.45;63.94
21980;BME280;11154;48.558;9.234;2023-03-16T10:19:09;97660.13;;;11.52;60.51
21980;BME280;11154;48.558;9.234;2023-03-16T10:21:15;97665.44;;;11.60;60.50
21980;BME280;11154;48.558;9.234;2023-03-16T10:23:20;97669.13;;;11.75;59.88
21980;BME280;11154;48.558;9.234;2023-03-16T10:25:26;97669.81;;;12.09;59.92
21980;BME280;11154;48.558;9.234;2023-03-16T10:27:34;97665.63;;;12.30;57.82
21980;BME280;11154;48.558;9.234;2023-03-16T10:29:37;97665.13;;;12.19;55.31
21980;BME280;11154;48.558;9.234;2023-03-16T10:31:40;97676.66;;;12.12;56.50
21980;BME280;11154;48.558;9.234;2023-03-16T10:33:42;97663.66;;;12.09;55.43
21980;BME280;11154;48.558;9.234;2023-03-16T10:35:45;97661.97;;;12.16;57.09
21980;BME280;11154;48.558;9.234;2023-03-16T10:37:48;97658.81;;;12.28;58.54
21980;BME280;11154;48.558;9.234;2023-03-16T10:39:52;97647.28;;;12.35;58.08
21980;BME280;11154;48.558;9.234;2023-03-16T10:41:57;97644.94;;;12.40;56.75
21980;BME280;11154;48.558;9.234;2023-03-16T10:44:00;97658.28;;;12.48;55.38
21980;BME280;11154;48.558;9.234;2023-03-16T10:46:09;97656.09;;;12.52;53.30
21980;BME280;11154;48.558;9.234;2023-03-16T10:48:14;97660.09;;;12.56;53.91
21980;BME280;11154;48.558;9.234;2023-03-16T10:50:22;97645.41;;;12.68;54.05
21980;BME280;11154;48.558;9.234;2023-03-16T10:52:32;97646.69;;;12.80;54.04
21980;BME280;11154;48.558;9.234;2023-03-16T10:54:37;97645.16;;;12.85;55.84
21980;BME280;11154;48.558;9.234;2023-03-16T10:56:41;97641.00;;;12.91;54.06
21980;BME280;11154;48.558;9.234;2023-03-16T10:58:43;97636.16;;;12.94;54.32
21980;BME280;11154;48.558;9.234;2023-03-16T11:00:45;97629.81;;;12.95;49.44